Time;durP1;ratioP1;P1;durP2;ratioP2;P2;SDS_P1;SDS_P2;PMS_P1;PMS_P2;Temp;Humidity;BMP_temperature;BMP_pressure;BME280_temperature;BME280_humidity;BME280_pressure;Samples;Min_cycle;Max_cycle;Signal;HPM_P1;HPM_P2
2021/07/03 00:01:02;;;;;;;11.48;10.38;;;13.70;99.90;;;14.52;85.83;98092.81;5213299;28;20658;-61
2021/07/03 00:03:36;;;;;;;12.05;10.80;;;13.80;99.90;;;14.50;84.94;98089.25;5218502;28;20638;-61
2021/07/03 00:06:10;;;;;;;13.07;11.23;;;13.70;99.90;;;14.48;85.69;98086.63;5209198;28;20196;-61
2021/07/03 00:08:44;;;;;;;11.55;10.50;;;13.70;99.90;;;14.43;85.86;98086.41;5217256;28;20204;-62
2021/07/03 00:11:17;;;;;;;12.82;11.68;;;13.70;99.90;;;14.40;85.65;98080.25;5206317;28;20200;-62
2021/07/03 00:13:50;;;;;;;12.90;11.18;;;13.60;99.90;;;14.38;85.22;98085.31;5214577;28;20273;-61
2021/07/03 00:16:23;;;;;;;12.63;11.43;;;13.60;99.90;;;14.39;85.80;98091.31;5212766;28;20197;-62
2021/07/03 00:18:56;;;;;;;12.25;11.15;;;13.60;99.90;;;14.39;86.29;98089.66;5217690;28;20724;-61
2021/07/03 00:21:31;;;;;;;12.70;11.40;;;13.60;99.90;;;14.41;87.04;98085.44;5225250;28;20248;-62
2021/07/03 00:24:05;;;;;;;12.57;11.48;;;13.70;99.90;;;14.46;86.12;98084.78;5210774;28;20190;-61
2021/07/03 00:26:38;;;;;;;11.80;10.63;;;13.70;99.90;;;14.41;86.26;98084.56;5224825;28;20201;-62
2021/07/03 00:29:11;;;;;;;11.85;10.75;;;13.70;99.90;;;14.40;85.99;98090.53;5217861;28;20197;-61
2021/07/03 00:31:44;;;;;;;11.93;10.70;;;13.60;99.90;;;14.38;86.39;98085.31;5219921;28;20595;-61
2021/07/03 00:34:18;;;;;;;12.35;10.75;;;13.60;99.90;;;14.36;86.06;98081.78;5215119;28;20233;-61
2021/07/03 00:36:52;;;;;;;12.55;11.38;;;13.60;99.90;;;14.33;85.19;98088.47;5208372;28;20221;-61
2021/07/03 00:39:25;;;;;;;12.13;10.93;;;13.60;99.90;;;14.34;86.42;98088.56;5221698;28;20222;-61
2021/07/03 00:41:58;;;;;;;13.10;11.95;;;13.60;99.90;;;14.41;86.58;98082.00;5219405;28;20776;-62
2021/07/03 00:44:36;;;;;;;12.52;11.38;;;13.60;99.90;;;14.33;86.30;98079.06;5212909;28;20204;-62
2021/07/03 00:47:10;;;;;;;12.00;10.93;;;13.60;99.90;;;14.34;86.57;98086.00;5212319;28;20650;-62
2021/07/03 00:49:43;;;;;;;12.48;11.18;;;13.60;99.90;;;14.40;85.80;98081.13;5222560;28;20197;-61
2021/07/03 00:52:17;;;;;;;12.25;11.15;;;13.60;99.90;;;14.37;86.04;98080.97;5219148;28;20216;-61
2021/07/03 00:54:51;;;;;;;12.32;11.13;;;13.60;99.90;;;14.35;86.08;98081.72;5215760;28;20192;-62
2021/07/03 00:57:24;;;;;;;12.45;11.25;;;13.60;99.90;;;14.37;86.24;98072.41;5215085;28;20193;-62
2021/07/03 00:59:58;;;;;;;11.50;10.43;;;13.60;99.90;;;14.34;84.92;98075.69;5220870;28;20229;-61
2021/07/03 01:02:31;;;;;;;11.93;10.82;;;13.50;99.90;;;14.26;85.11;98081.31;5216930;28;20239;-61
2021/07/03 01:05:06;;;;;;;11.48;10.45;;;13.40;99.90;;;14.22;84.99;98080.25;5215043;28;20677;-62
2021/07/03 01:07:41;;;;;;;12.25;11.07;;;13.40;99.90;;;14.20;86.05;98076.75;5213394;28;20197;-61
2021/07/03 01:10:20;;;;;;;11.35;10.23;;;13.40;99.90;;;14.22;86.01;98080.25;5206001;28;20216;-61
2021/07/03 01:12:53;;;;;;;11.05;10.13;;;13.40;99.90;;;14.18;85.23;98078.38;5216207;28;20227;-62
2021/07/03 01:15:27;;;;;;;11.68;10.57;;;13.40;99.90;;;14.17;86.11;98076.63;5216284;28;20201;-61
2021/07/03 01:18:00;;;;;;;11.45;10.45;;;13.40;99.90;;;14.06;85.97;98073.53;5215039;28;20251;-61
2021/07/03 01:20:33;;;;;;;11.57;10.57;;;13.30;99.90;;;14.02;86.09;98081.94;5210869;28;20723;-61
2021/07/03 01:23:08;;;;;;;12.18;11.07;;;13.20;99.90;;;13.97;85.97;98083.41;5221596;28;20221;-61
2021/07/03 01:25:41;;;;;;;10.90;9.90;;;13.20;99.90;;;13.96;86.03;98086.75;5206133;28;20857;-61
2021/07/03 01:28:14;;;;;;;12.55;11.40;;;13.20;99.90;;;13.93;85.26;98082.34;5209333;28;20561;-61
2021/07/03 01:30:47;;;;;;;11.90;10.80;;;13.10;99.90;;;13.96;86.34;98082.53;5213219;28;20200;-61
2021/07/03 01:33:20;;;;;;;12.02;10.93;;;13.20;99.90;;;13.97;85.98;98079.13;5216578;28;20584;-61
2021/07/03 01:35:53;;;;;;;12.48;11.27;;;13.20;99.90;;;14.00;86.08;98080.97;5207550;28;20216;-62
2021/07/03 01:38:28;;;;;;;13.02;11.10;;;13.20;99.90;;;13.94;85.75;98073.84;5216079;28;20736;-61
2021/07/03 01:41:01;;;;;;;11.70;10.50;;;13.10;99.90;;;13.82;86.08;98070.72;5204730;28;20591;-61
2021/07/03 01:43:34;;;;;;;12.00;10.80;;;13.00;99.90;;;13.90;85.80;98068.47;5215158;28;20540;-62
2021/07/03 01:46:07;;;;;;;12.55;11.35;;;13.10;99.90;;;13.90;87.42;98068.47;5210657;28;20189;-62
2021/07/03 01:48:40;;;;;;;11.50;10.50;;;13.20;99.90;;;13.93;85.81;98068.63;5214455;28;20201;-61
2021/07/03 01:51:14;;;;;;;11.98;10.77;;;13.10;99.90;;;13.94;86.88;98067.84;5210799;28;20194;-62
2021/07/03 01:53:48;;;;;;;13.10;10.93;;;13.20;99.90;;;13.93;85.71;98069.50;5214191;28;20200;-61
2021/07/03 01:56:21;;;;;;;13.18;11.68;;;13.10;99.90;;;13.87;85.63;98061.50;5219333;28;20197;-62
2021/07/03 01:58:54;;;;;;;11.23;10.23;;;13.10;99.90;;;13.70;85.99;98058.13;5219152;28;20284;-61
2021/07/03 02:01:27;;;;;;;12.48;11.30;;;12.90;99.90;;;13.56;86.34;98069.44;5215545;28;20230;-62
2021/07/03 02:04:01;;;;;;;11.57;10.57;;;12.70;99.90;;;13.47;85.79;98063.84;5205405;28;20202;-61
2021/07/03 02:06:34;;;;;;;13.05;11.85;;;12.70;99.90;;;13.49;86.68;98060.56;5213183;28;20575;-61
2021/07/03 02:09:08;;;;;;;12.00;10.80;;;12.70;99.90;;;13.46;86.48;98062.97;5208025;28;20647;-61
2021/07/03 02:11:42;;;;;;;12.68;11.48;;;12.60;99.90;;;13.48;87.15;98069.06;5221622;28;20230;-61
2021/07/03 02:14:16;;;;;;;12.48;11.32;;;12.70;99.90;;;13.48;87.58;98074.22;5225396;28;20662;-62
2021/07/03 02:16:49;;;;;;;12.05;10.82;;;12.70;99.90;;;13.45;88.75;98070.63;5223655;28;20584;-61
2021/07/03 02:19:22;;;;;;;12.20;11.00;;;12.70;99.90;;;13.38;87.70;98064.28;5216872;28;20209;-61
2021/07/03 02:21:56;;;;;;;12.32;11.13;;;12.60;99.90;;;13.38;86.61;98060.84;5213547;28;20303;-61
2021/07/03 02:24:32;;;;;;;12.75;11.45;;;12.60;99.90;;;13.37;87.45;98059.09;5217617;28;20305;-62
2021/07/03 02:27:05;;;;;;;11.57;10.48;;;12.60;99.90;;;13.32;87.44;98055.41;5215222;28;20198;-61
2021/07/03 02:29:38;;;;;;;12.18;11.05;;;12.50;99.90;;;13.25;86.76;98056.75;5216686;28;20299;-61
2021/07/03 02:32:11;;;;;;;11.77;10.77;;;12.50;99.90;;;13.26;86.63;98063.69;5217005;28;20698;-61
2021/07/03 02:34:44;;;;;;;12.32;11.13;;;12.40;99.90;;;13.20;86.60;98068.47;5221105;28;20376;-61
2021/07/03 02:37:18;;;;;;;13.32;11.98;;;12.50;99.90;;;13.12;87.88;98070.66;5212661;28;20194;-61
2021/07/03 02:39:52;;;;;;;12.50;11.40;;;12.40;99.90;;;13.03;87.46;98081.34;5213770;28;20232;-62
2021/07/03 02:42:25;;;;;;;12.55;11.35;;;12.20;99.90;;;13.03;88.40;98081.34;5224677;28;20221;-62
2021/07/03 02:44:58;;;;;;;12.43;11.25;;;12.30;99.90;;;13.03;88.13;98073.63;5217425;28;20239;-62
2021/07/03 02:47:31;;;;;;;12.43;11.32;;;12.30;99.90;;;13.12;89.23;98080.03;5224164;28;20205;-61
2021/07/03 02:50:06;;;;;;;12.75;11.55;;;12.40;99.90;;;13.18;88.78;98076.09;5214466;28;20190;-61
2021/07/03 02:52:40;;;;;;;13.25;11.85;;;12.50;99.90;;;13.23;89.40;98078.91;5216273;28;20307;-61
2021/07/03 02:55:15;;;;;;;12.48;11.27;;;12.50;99.90;;;13.26;88.91;98079.09;5210002;28;20681;-61
2021/07/03 02:57:49;;;;;;;13.10;11.80;;;12.60;99.90;;;13.25;87.90;98069.59;5208713;28;20193;-61
2021/07/03 03:00:22;;;;;;;12.27;11.07;;;12.60;99.90;;;13.29;88.24;98074.97;5216575;28;20226;-61
2021/07/03 03:02:55;;;;;;;12.57;11.48;;;12.60;99.90;;;13.34;87.81;98077.78;5223950;28;20617;-61
2021/07/03 03:05:29;;;;;;;12.43;11.27;;;12.60;99.90;;;13.29;88.38;98085.25;5210856;28;20204;-61
2021/07/03 03:08:02;;;;;;;11.80;10.70;;;12.60;99.90;;;13.26;88.09;98084.22;5224570;28;20194;-61
2021/07/03 03:10:36;;;;;;;12.73;11.43;;;12.50;99.90;;;13.29;88.83;98074.97;5208176;28;20190;-61
2021/07/03 03:13:09;;;;;;;12.90;11.60;;;12.60;99.90;;;13.23;87.44;98076.34;5207986;28;20213;-62
2021/07/03 03:15:42;;;;;;;12.90;11.70;;;12.50;99.90;;;13.17;86.99;98076.03;5220629;28;20548;-61
2021/07/03 03:18:15;;;;;;;12.35;11.15;;;12.40;99.90;;;13.12;87.06;98074.91;5227957;28;20193;-61
2021/07/03 03:20:48;;;;;;;11.75;10.27;;;12.30;99.90;;;13.12;87.18;98075.78;5209734;28;20222;-61
2021/07/03 03:23:21;;;;;;;11.52;10.50;;;12.30;99.90;;;13.15;88.55;98075.06;5214334;28;20213;-61
2021/07/03 03:25:56;;;;;;;12.23;11.13;;;12.40;99.90;;;13.09;88.50;98075.63;5217773;28;20197;-61
2021/07/03 03:28:29;;;;;;;11.30;10.30;;;12.30;99.90;;;13.17;87.46;98076.03;5222110;28;20224;-61
2021/07/03 03:31:02;;;;;;;12.43;11.13;;;12.40;99.90;;;13.17;86.75;98078.59;5211652;28;20193;-61
2021/07/03 03:33:35;;;;;;;11.85;10.75;;;12.30;99.90;;;13.13;87.25;98081.78;5213047;28;20666;-62
2021/07/03 03:36:19;;;;;;;11.80;10.70;;;12.30;99.90;;;13.09;87.02;98070.50;5219522;28;20189;-61
2021/07/03 03:38:52;;;;;;;13.02;11.73;;;12.30;99.90;;;13.07;87.02;98060.13;5213732;28;20193;-60
2021/07/03 03:41:26;;;;;;;11.45;10.45;;;12.30;99.90;;;13.10;87.67;98061.09;5212646;28;20564;-61
2021/07/03 03:43:59;;;;;;;11.63;10.65;;;12.30;99.90;;;13.13;87.28;98064.69;5225364;28;20205;-61
2021/07/03 03:46:32;;;;;;;11.70;10.60;;;12.30;99.90;;;13.04;87.08;98067.69;5209554;28;20233;-61
2021/07/03 03:49:06;;;;;;;11.68;10.68;;;12.20;99.90;;;13.00;87.41;98060.66;5217185;28;20194;-61
2021/07/03 03:51:39;;;;;;;11.93;10.82;;;12.10;99.90;;;12.97;87.75;98060.50;5207642;28;20210;-60
2021/07/03 03:54:12;;;;;;;12.23;11.13;;;12.20;99.90;;;12.91;87.60;98059.31;5209600;28;20198;-61
2021/07/03 03:56:46;;;;;;;11.50;10.15;;;12.10;99.90;;;12.86;86.69;98056.50;5206071;28;20214;-61
2021/07/03 03:59:19;;;;;;;13.38;11.13;;;12.10;99.90;;;12.88;87.59;98065.16;5208818;28;20201;-60
2021/07/03 04:01:52;;;;;;;12.20;10.65;;;12.10;99.90;;;12.89;87.45;98056.66;5221240;28;20222;-61
2021/07/03 04:04:25;;;;;;;12.10;10.73;;;12.10;99.90;;;12.86;87.26;98056.50;5218090;28;20207;-61
2021/07/03 04:06:58;;;;;;;12.00;10.80;;;12.10;99.90;;;12.84;87.39;98063.22;5207647;28;20586;-61
2021/07/03 04:09:32;;;;;;;12.25;11.05;;;12.10;99.90;;;12.84;88.18;98063.22;5218631;28;20207;-61
2021/07/03 04:12:07;;;;;;;12.10;11.00;;;12.10;99.90;;;12.82;87.94;98065.72;5222168;28;20593;-60
2021/07/03 04:14:40;;;;;;;11.23;10.13;;;12.00;99.90;;;12.79;88.00;98065.59;5209264;28;20220;-61
2021/07/03 04:17:14;;;;;;;11.98;10.82;;;12.00;99.90;;;12.89;88.12;98071.19;5225172;28;20196;-61
2021/07/03 04:19:47;;;;;;;11.95;10.55;;;12.10;99.90;;;12.88;87.40;98072.88;5209935;28;20210;-62
2021/07/03 04:22:21;;;;;;;10.77;9.85;;;12.10;99.90;;;12.94;87.45;98065.47;5218710;28;20221;-61
2021/07/03 04:24:54;;;;;;;12.45;11.15;;;12.20;99.90;;;12.98;88.86;98075.06;5218595;28;20194;-60
2021/07/03 04:27:29;;;;;;;12.23;11.07;;;12.30;99.90;;;13.04;87.86;98071.94;5214090;28;20212;-61
2021/07/03 04:30:02;;;;;;;12.10;10.68;;;12.30;99.90;;;13.13;88.26;98066.41;5214295;28;20189;-62
2021/07/03 04:32:35;;;;;;;11.10;10.10;;;12.40;99.90;;;13.21;86.96;98062.53;5223169;28;20214;-61
2021/07/03 04:35:11;;;;;;;12.35;11.05;;;12.40;99.90;;;13.27;87.50;98071.44;5213436;28;20202;-62
2021/07/03 04:37:44;;;;;;;12.50;11.30;;;12.50;99.90;;;13.29;85.80;98076.66;5209471;28;20199;-61
2021/07/03 04:40:18;;;;;;;11.55;10.45;;;12.40;99.90;;;13.27;86.32;98081.72;5208570;28;20201;-61
2021/07/03 04:42:52;;;;;;;12.38;11.10;;;12.50;99.90;;;13.35;86.60;98069.25;5214550;28;20704;-61
2021/07/03 04:45:25;;;;;;;11.80;10.73;;;12.50;99.90;;;13.55;85.33;98077.06;5211188;28;20703;-61
2021/07/03 04:47:58;;;;;;;12.18;10.23;;;12.50;99.90;;;13.88;84.79;98071.00;5212881;28;20186;-61
2021/07/03 04:50:32;;;;;;;11.07;10.15;;;12.90;99.90;;;14.40;83.06;98072.53;5214182;28;20627;-61
2021/07/03 04:53:05;;;;;;;11.98;10.88;;;13.40;99.90;;;15.02;81.50;98071.00;5214517;28;20216;-61
2021/07/03 04:55:38;;;;;;;11.13;10.10;;;13.90;99.90;;;15.65;77.87;98058.16;5211913;28;20198;-61
2021/07/03 04:58:14;;;;;;;10.38;9.48;;;14.50;99.90;;;16.20;75.46;98071.56;5208833;28;20669;-61
2021/07/03 05:00:47;;;;;;;10.52;9.52;;;15.00;99.90;;;16.67;73.20;98062.13;5218354;28;20197;-61
2021/07/03 05:03:20;;;;;;;10.23;9.30;;;15.50;99.90;;;17.13;71.24;98062.91;5208722;28;20217;-62
2021/07/03 05:05:53;;;;;;;10.60;9.52;;;15.70;99.90;;;17.61;69.12;98057.63;5216482;28;20677;-61
2021/07/03 05:08:26;;;;;;;9.30;8.50;;;16.10;99.90;;;17.79;67.73;98060.81;5217512;28;20260;-61
2021/07/03 05:10:59;;;;;;;9.20;8.38;;;16.30;99.90;;;18.19;66.53;98056.88;5221706;28;20197;-62
2021/07/03 05:13:34;;;;;;;9.40;8.63;;;16.50;99.90;;;18.33;64.65;98054.72;5217376;28;20220;-62
2021/07/03 05:16:08;;;;;;;9.63;8.85;;;16.50;99.90;;;18.40;64.71;98051.50;5215358;28;20540;-63
2021/07/03 05:18:41;;;;;;;10.65;9.75;;;16.60;99.90;;;18.39;63.52;98054.00;5219239;28;20223;-62
2021/07/03 05:21:14;;;;;;;10.07;9.20;;;16.80;99.90;;;18.55;63.66;98052.75;5219032;28;20571;-62
2021/07/03 05:23:47;;;;;;;10.43;9.52;;;16.70;99.90;;;18.52;63.81;98055.28;5224463;28;20208;-62
2021/07/03 05:26:20;;;;;;;10.50;9.60;;;16.90;99.90;;;18.98;62.98;98046.22;5207193;28;20193;-62
2021/07/03 05:28:55;;;;;;;9.90;9.10;;;17.10;99.90;;;19.33;61.52;98037.63;5210634;28;20197;-62
2021/07/03 05:31:29;;;;;;;10.63;9.55;;;17.40;99.90;;;19.64;60.25;98041.00;5206244;28;20217;-62
2021/07/03 05:34:02;;;;;;;10.43;9.48;;;17.60;99.90;;;19.96;60.03;98048.69;5207090;28;20251;-62
2021/07/03 05:36:35;;;;;;;10.60;9.60;;;17.80;99.90;;;20.03;59.73;98042.81;5208301;28;20196;-62
2021/07/03 05:39:08;;;;;;;10.50;9.60;;;18.00;99.90;;;20.30;59.22;98047.72;5216438;28;20203;-62
2021/07/03 05:41:42;;;;;;;10.75;9.70;;;18.20;99.90;;;20.37;58.95;98040.94;5211545;28;20225;-62
2021/07/03 05:44:17;;;;;;;9.80;9.00;;;18.20;99.90;;;20.54;58.56;98043.91;5218201;28;20288;-62
2021/07/03 05:46:50;;;;;;;9.73;8.93;;;18.40;99.90;;;20.82;58.02;98037.56;5218663;28;20203;-62
2021/07/03 05:49:23;;;;;;;10.98;9.98;;;18.60;99.90;;;20.85;57.26;98038.47;5207338;28;20280;-62
2021/07/03 05:51:56;;;;;;;11.15;10.07;;;18.70;99.90;;;21.19;56.02;98031.31;5208769;28;20213;-62
2021/07/03 05:54:31;;;;;;;10.48;9.55;;;18.80;99.90;;;21.54;55.57;98033.69;5203124;28;20199;-62
2021/07/03 05:57:05;;;;;;;10.00;9.20;;;19.10;99.90;;;21.42;55.36;98023.06;5208758;28;20201;-62
2021/07/03 05:59:40;;;;;;;9.57;8.73;;;19.20;99.90;;;21.68;55.30;98020.91;5210678;28;20281;-62
2021/07/03 06:02:13;;;;;;;10.32;9.20;;;19.30;99.90;;;21.62;56.21;98021.66;5219452;28;20221;-62
2021/07/03 06:04:47;;;;;;;9.70;8.90;;;19.40;99.90;;;22.32;54.33;98021.88;5215722;28;20255;-62
2021/07/03 06:07:20;;;;;;;10.95;9.43;;;19.60;99.90;;;22.68;52.63;98015.34;5219790;28;20201;-61
2021/07/03 06:09:53;;;;;;;10.02;9.18;;;20.00;99.90;;;22.83;52.46;98014.63;5213231;28;20198;-62
2021/07/03 06:12:26;;;;;;;9.95;9.10;;;20.00;99.90;;;23.03;52.04;98014.88;5218297;28;20488;-62
2021/07/03 06:15:01;;;;;;;9.13;8.38;;;20.10;99.90;;;23.33;51.43;98011.72;5205738;28;20198;-62
2021/07/03 06:17:34;;;;;;;9.52;8.63;;;20.40;99.90;;;23.68;50.35;98006.75;5206441;28;20543;-62
2021/07/03 06:20:09;;;;;;;9.70;8.80;;;20.80;99.90;;;24.01;49.69;98007.91;5204689;28;20216;-62
2021/07/03 06:22:42;;;;;;;9.85;8.25;;;21.00;99.90;;;23.75;50.37;98010.31;5215197;28;20224;-62
2021/07/03 06:25:16;;;;;;;9.25;8.45;;;21.10;99.90;;;24.44;48.98;98010.78;5204956;28;20197;-62
2021/07/03 06:27:49;;;;;;;8.90;8.15;;;21.20;99.90;;;24.34;48.69;98008.94;5212818;28;20298;-62
2021/07/03 06:30:23;;;;;;;8.63;7.75;;;21.50;99.90;;;24.42;48.68;98008.09;5206820;28;20212;-62
2021/07/03 06:32:57;;;;;;;9.10;8.30;;;21.70;99.90;;;24.80;47.77;98002.16;5210425;28;20216;-62
2021/07/03 06:35:30;;;;;;;9.15;8.35;;;21.90;99.90;;;24.84;47.68;98001.31;5214181;28;20208;-62
2021/07/03 06:38:04;;;;;;;8.18;7.57;;;21.90;99.90;;;25.33;46.39;98008.41;5228507;28;20200;-61
2021/07/03 06:40:37;;;;;;;8.35;7.70;;;22.30;99.90;;;25.68;46.15;97997.94;5211682;28;20201;-62
2021/07/03 06:43:15;;;;;;;8.82;8.02;;;22.60;99.90;;;26.22;44.82;98003.09;5209426;28;20278;-62
2021/07/03 06:45:49;;;;;;;8.45;7.75;;;23.10;99.90;;;26.75;43.46;97994.16;5211101;28;20189;-62
2021/07/03 06:48:23;;;;;;;8.27;7.57;;;23.40;99.70;;;26.67;42.82;97999.47;5217343;28;20595;-62
2021/07/03 06:50:56;;;;;;;8.23;7.47;;;23.60;98.60;;;27.04;42.58;97996.63;5208724;28;20200;-62
2021/07/03 06:53:29;;;;;;;8.70;7.97;;;23.80;98.20;;;27.42;40.99;97995.53;5221862;28;20586;-63
2021/07/03 06:56:06;;;;;;;8.13;7.43;;;23.90;97.40;;;27.30;41.13;98004.38;5210918;28;20204;-62
2021/07/03 06:58:39;;;;;;;8.07;7.35;;;24.30;96.70;;;27.35;42.04;97992.03;5205885;28;20382;-62
2021/07/03 07:01:13;;;;;;;8.02;7.22;;;24.60;96.90;;;27.67;41.22;97998.81;5212248;28;20194;-62
2021/07/03 07:03:47;;;;;;;8.90;8.10;;;24.70;96.10;;;27.79;41.12;98000.50;5212351;28;20231;-63
2021/07/03 07:06:20;;;;;;;8.10;7.32;;;24.80;96.00;;;28.00;40.61;97997.63;5218517;28;20197;-63
2021/07/03 07:08:53;;;;;;;8.20;7.50;;;24.90;95.80;;;27.66;41.38;97997.06;5218445;28;20654;-63
2021/07/03 07:11:26;;;;;;;8.48;7.75;;;25.10;95.50;;;27.59;41.58;97987.50;5218021;28;20213;-63
2021/07/03 07:13:59;;;;;;;7.60;7.00;;;25.20;95.30;;;28.37;39.38;97991.09;5220567;28;20195;-63
2021/07/03 07:16:34;;;;;;;8.35;7.65;;;25.60;94.60;;;28.60;39.66;97989.09;5216288;28;20189;-63
2021/07/03 07:19:08;;;;;;;8.10;7.43;;;25.80;95.10;;;28.70;39.09;97990.72;5206047;28;20193;-63
2021/07/03 07:21:41;;;;;;;7.88;7.20;;;25.90;94.70;;;28.94;39.17;97984.22;5214767;28;20704;-63
2021/07/03 07:24:14;;;;;;;8.40;7.60;;;26.00;94.60;;;28.89;38.64;97979.91;5220221;28;20216;-63
2021/07/03 07:26:47;;;;;;;8.07;7.38;;;26.30;93.50;;;29.10;38.78;97984.03;5205790;28;20193;-63
2021/07/03 07:29:20;;;;;;;7.78;7.18;;;26.20;93.40;;;29.22;38.50;97983.84;5216992;28;20193;-63
2021/07/03 07:31:55;;;;;;;7.50;6.80;;;26.10;93.50;;;29.54;37.46;97978.06;5206621;28;20224;-63
2021/07/03 07:34:28;;;;;;;7.63;7.03;;;26.50;92.90;;;29.48;37.72;97975.53;5222565;28;20279;-63
2021/07/03 07:37:01;;;;;;;8.05;7.40;;;26.60;93.20;;;29.64;37.22;97981.44;5211707;28;20571;-63
2021/07/03 07:39:34;;;;;;;7.65;7.00;;;26.90;92.20;;;29.60;37.27;97980.59;5211695;28;20335;-65
2021/07/03 07:42:08;;;;;;;7.13;6.57;;;26.90;92.60;;;29.97;36.92;97974.69;5220242;28;20220;-63
2021/07/03 07:44:41;;;;;;;7.70;7.10;;;27.10;92.10;;;30.36;36.25;97966.03;5215170;28;20223;-61
2021/07/03 07:47:15;;;;;;;7.50;6.90;;;27.20;91.80;;;29.40;38.48;97966.88;5211849;28;20197;-64
2021/07/03 07:49:49;;;;;;;7.50;6.80;;;26.80;92.90;;;30.27;36.94;97961.81;5220181;28;20204;-64
2021/07/03 07:52:22;;;;;;;7.13;6.57;;;27.00;92.40;;;30.46;36.29;97963.19;5211293;28;20213;-64
2021/07/03 07:54:55;;;;;;;7.38;6.68;;;27.20;92.10;;;29.91;37.17;97959.00;5222848;28;20657;-63
2021/07/03 07:57:28;;;;;;;7.10;6.47;;;27.00;92.20;;;30.18;36.15;97959.34;5222459;28;20200;-63
2021/07/03 08:00:01;;;;;;;6.75;6.15;;;27.00;91.90;;;30.17;37.17;97961.13;5212499;28;20653;-63
2021/07/03 08:02:36;;;;;;;7.35;6.70;;;27.00;92.70;;;30.28;36.70;97958.31;5212781;28;20221;-63
2021/07/03 08:05:11;;;;;;;7.40;6.70;;;27.00;92.00;;;30.51;35.66;97963.97;5218635;28;20288;-63
2021/07/03 08:07:45;;;;;;;7.40;6.80;;;27.30;91.10;;;30.73;33.99;97951.19;5211364;28;20189;-63
2021/07/03 08:10:18;;;;;;;7.15;6.45;;;27.50;90.00;;;30.71;34.98;97952.97;5219051;28;20416;-63
2021/07/03 08:12:51;;;;;;;6.68;6.18;;;27.40;90.80;;;30.83;34.69;97946.59;5207845;28;20586;-61
2021/07/03 08:15:24;;;;;;;7.18;6.57;;;27.80;90.40;;;30.41;35.64;97951.00;5215434;28;20246;-61
2021/07/03 08:17:59;;;;;;;6.63;6.10;;;27.50;90.60;;;31.01;35.06;97949.69;5214846;28;20658;-61
2021/07/03 08:20:34;;;;;;;7.20;6.60;;;27.60;90.90;;;31.18;34.73;97945.75;5219224;28;20223;-61
2021/07/03 13:17:06;;;;;;;5.93;5.53;;;25.90;77.40;;;25.83;36.14;97714.22;5278487;27;20601;-62
2021/07/03 13:19:39;;;;;;;5.60;5.20;;;25.90;75.30;;;26.03;36.72;97707.09;5229801;28;20195;-60
2021/07/03 13:22:12;;;;;;;5.55;5.15;;;25.90;75.60;;;26.16;36.69;97704.41;5229519;28;20217;-62
2021/07/03 13:24:45;;;;;;;6.40;5.90;;;25.80;76.40;;;26.43;36.95;97703.28;5212707;28;20297;-59
2021/07/03 13:27:18;;;;;;;5.22;4.90;;;26.00;77.50;;;26.60;36.46;97692.69;5218673;28;20227;-60
2021/07/03 13:29:51;;;;;;;5.47;5.07;;;26.10;77.10;;;26.92;36.08;97690.59;5215238;28;20564;-62
2021/07/03 13:32:26;;;;;;;5.85;5.45;;;26.30;76.90;;;26.98;36.04;97694.03;5217768;28;20216;-62
2021/07/03 13:34:59;;;;;;;5.35;4.95;;;26.40;77.20;;;27.18;34.45;97690.38;5208483;28;20216;-62
2021/07/03 13:37:32;;;;;;;5.45;5.10;;;26.50;74.70;;;27.22;35.89;97685.94;5209811;28;20213;-63
2021/07/03 13:40:07;;;;;;;5.30;4.90;;;26.50;77.00;;;27.37;34.08;97692.75;5209085;28;20961;-60
2021/07/03 13:42:40;;;;;;;5.15;4.80;;;26.70;73.70;;;27.23;34.19;97685.03;5211594;28;20216;-62
2021/07/03 13:45:15;;;;;;;6.25;5.45;;;26.60;74.10;;;27.23;34.52;97686.78;5218754;28;20216;-62
2021/07/03 13:47:49;;;;;;;5.40;5.00;;;26.50;74.50;;;27.24;34.52;97681.50;5212550;28;20195;-61
2021/07/03 13:50:22;;;;;;;5.10;4.70;;;26.50;74.80;;;27.20;34.87;97682.44;5218715;28;20206;-62
2021/07/03 13:52:55;;;;;;;5.25;4.85;;;26.50;75.20;;;27.32;33.17;97681.44;5220037;28;20693;-62
2021/07/03 13:55:29;;;;;;;5.35;4.95;;;26.50;72.00;;;27.49;33.84;97676.81;5220094;28;20272;-61
2021/07/03 13:58:02;;;;;;;5.10;4.70;;;26.60;74.50;;;27.54;33.88;97684.66;5217904;28;20205;-62
2021/07/03 14:00:35;;;;;;;5.07;4.68;;;26.70;73.60;;;27.60;33.23;97684.56;5207941;28;20215;-60
2021/07/03 14:03:10;;;;;;;4.78;4.47;;;26.80;72.80;;;27.62;33.05;97672.28;5218433;28;20225;-62
2021/07/03 14:05:44;;;;;;;5.40;5.00;;;26.80;72.30;;;27.53;33.28;97675.06;5219238;28;20201;-60
2021/07/03 14:08:18;;;;;;;5.15;4.75;;;26.70;73.30;;;27.75;33.16;97676.47;5216927;28;20192;-61
2021/07/03 14:10:51;;;;;;;5.25;4.88;;;26.80;72.90;;;27.63;32.72;97671.38;5212119;28;20196;-62
2021/07/03 14:13:25;;;;;;;5.25;4.85;;;26.80;71.60;;;27.79;32.03;97682.59;5219274;28;20219;-61
2021/07/03 14:15:58;;;;;;;4.53;4.22;;;27.00;70.60;;;27.49;31.97;97674.19;5218795;28;20220;-62
2021/07/03 14:18:33;;;;;;;5.18;4.78;;;26.70;70.40;;;27.51;32.72;97671.56;5219793;28;20665;-62
2021/07/03 14:21:06;;;;;;;5.20;4.80;;;26.60;71.30;;;27.55;32.83;97665.38;5207586;28;20227;-62
2021/07/03 14:23:39;;;;;;;5.60;5.20;;;26.60;72.60;;;27.52;34.16;97662.78;5218816;28;20570;-62
2021/07/03 14:26:13;;;;;;;4.75;4.40;;;26.60;75.50;;;27.47;34.25;97668.13;5212379;28;20202;-62
2021/07/03 14:28:46;;;;;;;5.68;5.28;;;26.50;74.10;;;27.57;36.61;97674.09;5202224;28;20202;-62
2021/07/03 14:31:20;;;;;;;5.40;5.10;;;26.60;77.90;;;27.58;35.69;97667.94;5191363;28;20208;-61
2021/07/03 14:33:54;;;;;;;5.45;5.05;;;26.60;77.00;;;27.59;34.34;97669.72;5202226;28;20588;-62
2021/07/03 14:36:27;;;;;;;5.82;5.20;;;26.70;74.20;;;27.66;33.28;97665.22;5203630;28;20213;-62
2021/07/03 14:39:00;;;;;;;5.22;4.82;;;26.70;73.00;;;27.81;33.57;97660.66;5203357;28;20292;-62
2021/07/03 14:41:34;;;;;;;5.57;5.07;;;26.80;73.90;;;27.96;33.17;97658.69;5204996;28;20280;-62
2021/07/03 14:44:07;;;;;;;4.60;4.30;;;26.90;73.00;;;27.98;31.53;97663.00;5203018;28;20201;-62
2021/07/03 14:46:41;;;;;;;5.10;4.60;;;26.80;70.10;;;28.01;32.28;97662.09;5203770;28;20751;-62
2021/07/03 14:49:16;;;;;;;5.40;5.00;;;26.80;72.50;;;28.20;31.23;97658.28;5202588;28;20223;-60
2021/07/03 14:51:49;;;;;;;5.57;5.07;;;27.00;70.60;;;28.22;32.04;97656.50;5205137;28;20220;-62
2021/07/03 14:54:22;;;;;;;5.35;4.95;;;27.00;71.40;;;28.20;32.58;97657.41;5205229;28;20196;-61
2021/07/03 14:56:55;;;;;;;5.18;4.78;;;27.10;72.30;;;28.19;33.71;97661.81;5204520;28;20217;-62
2021/07/03 14:59:28;;;;;;;4.80;4.32;;;27.10;74.20;;;28.11;32.94;97650.56;5204346;28;20204;-62
2021/07/03 15:02:01;;;;;;;5.07;4.68;;;27.10;73.40;;;28.16;33.81;97651.34;5204120;28;20251;-61
2021/07/03 15:04:52;;;;;;;4.95;4.55;;;27.10;74.20;;;28.02;33.01;97645.47;5203956;28;20747;-61
2021/07/03 15:07:25;;;;;;;5.47;5.07;;;27.00;73.40;;;27.91;34.05;97653.50;5197462;28;20203;-60
2021/07/03 15:09:59;;;;;;;5.18;4.70;;;26.80;73.90;;;27.84;34.38;97647.47;5204061;28;20752;-59
2021/07/03 15:12:32;;;;;;;4.97;4.68;;;26.80;75.90;;;27.82;34.84;97646.63;5193256;28;20210;-59
2021/07/03 15:15:09;;;;;;;5.55;5.13;;;26.80;75.60;;;27.68;34.73;97645.94;5203474;28;20201;-61
2021/07/03 15:17:42;;;;;;;4.57;4.28;;;26.70;75.40;;;27.68;36.36;97642.44;5202835;28;20216;-59
2021/07/03 15:20:18;;;;;;;5.25;4.95;;;26.60;78.70;;;27.60;36.36;97632.03;5204348;28;20197;-60
2021/07/03 15:22:51;;;;;;;5.18;4.78;;;26.50;77.70;;;27.44;35.58;97628.75;5196962;28;20213;-60
2021/07/03 15:25:24;;;;;;;4.90;4.60;;;26.40;76.80;;;27.39;35.34;97634.09;5200138;28;20209;-60
2021/07/03 15:27:57;;;;;;;5.32;5.00;;;26.40;75.80;;;27.42;35.41;97634.94;5197707;28;20589;-62
2021/07/03 15:30:30;;;;;;;5.10;4.70;;;26.40;75.30;;;27.44;35.31;97633.13;5202020;28;20193;-62
2021/07/03 15:33:04;;;;;;;5.65;4.82;;;26.40;76.20;;;27.79;33.74;97630.91;5198682;28;20316;-64